createdAt,value
2022-08-17T00:00:35.006Z,22.42
2022-08-17T00:03:26.354Z,22.38
2022-08-17T00:06:07.001Z,22.35
2022-08-17T00:08:44.487Z,22.31
2022-08-17T00:11:34.529Z,22.26
2022-08-17T00:14:14.059Z,22.22
2022-08-17T00:16:56.982Z,22.16
2022-08-17T00:19:26.225Z,22.11
2022-08-17T00:22:32.713Z,22.10
2022-08-17T00:24:45.259Z,22.05
2022-08-17T00:27:12.295Z,22.00
2022-08-17T00:29:39.323Z,21.98
2022-08-17T00:33:15.124Z,21.94
2022-08-17T00:34:54.087Z,21.91
2022-08-17T00:37:21.550Z,21.86
2022-08-17T00:39:48.623Z,21.81
2022-08-17T00:42:21.250Z,21.78
2022-08-17T00:44:48.868Z,21.75
2022-08-17T00:47:15.903Z,21.71
2022-08-17T00:49:43.078Z,21.68
2022-08-17T00:52:19.182Z,21.66
2022-08-17T00:54:52.201Z,21.64
2022-08-17T00:57:29.105Z,21.60
2022-08-17T01:00:21.291Z,21.57
2022-08-17T01:02:49.234Z,21.55
2022-08-17T01:05:25.886Z,21.50
2022-08-17T01:07:55.161Z,21.47
2022-08-17T01:10:58.444Z,21.42
2022-08-17T01:13:25.455Z,21.39
2022-08-17T01:16:07.901Z,21.36
2022-08-17T01:18:36.014Z,21.32
2022-08-17T01:21:20.226Z,21.27
2022-08-17T01:23:47.922Z,21.22
2022-08-17T01:26:16.186Z,21.18
2022-08-17T01:28:54.242Z,21.16
2022-08-17T01:31:28.561Z,21.13
2022-08-17T01:33:59.860Z,21.10
2022-08-17T01:36:29.253Z,21.08
2022-08-17T01:38:56.742Z,21.06
2022-08-17T01:41:24.791Z,21.04
2022-08-17T01:44:03.457Z,21.00
2022-08-17T01:46:36.150Z,20.98
2022-08-17T01:49:09.198Z,20.94
2022-08-17T01:51:37.301Z,20.90
2022-08-17T01:54:11.542Z,20.86
2022-08-17T01:56:43.741Z,20.84
2022-08-17T01:59:18.467Z,20.81
2022-08-17T02:01:47.717Z,20.78
2022-08-17T02:04:16.144Z,20.76
2022-08-17T02:06:52.461Z,20.73
2022-08-17T02:09:23.971Z,20.69
2022-08-17T02:11:58.934Z,20.64
2022-08-17T02:14:26.906Z,20.62
2022-08-17T02:16:54.661Z,20.59
2022-08-17T02:19:22.406Z,20.55
2022-08-17T02:21:52.530Z,20.51
2022-08-17T02:24:59.635Z,20.49
2022-08-17T02:27:16.600Z,20.46
2022-08-17T02:29:44.078Z,20.44
2022-08-17T02:32:27.458Z,20.41
2022-08-17T02:35:00.574Z,20.37
2022-08-17T02:37:29.759Z,20.33
2022-08-17T02:39:58.702Z,20.32
2022-08-17T02:42:38.506Z,20.30
2022-08-17T02:45:15.695Z,20.26
2022-08-17T02:47:44.189Z,20.21
2022-08-17T02:50:15.187Z,20.18
2022-08-17T02:52:48.821Z,20.16
2022-08-17T02:55:33.919Z,20.12
2022-08-17T02:58:01.855Z,20.09
2022-08-17T03:00:37.134Z,20.07
2022-08-17T03:03:06.045Z,20.03
2022-08-17T03:05:36.339Z,20.02
2022-08-17T03:08:05.631Z,19.99
2022-08-17T03:10:33.965Z,19.97
2022-08-17T03:13:01.561Z,19.97
2022-08-17T03:15:33.477Z,19.94
2022-08-17T03:18:02.518Z,19.91
2022-08-17T03:20:33.550Z,19.88
2022-08-17T03:23:02.814Z,19.85
2022-08-17T03:25:39.070Z,19.83
2022-08-17T03:28:07.374Z,19.80
2022-08-17T03:30:36.059Z,19.76
2022-08-17T03:33:07.383Z,19.73
2022-08-17T03:35:37.583Z,19.71
2022-08-17T03:38:05.210Z,19.69
2022-08-17T03:40:34.626Z,19.68
2022-08-17T03:43:23.034Z,19.64
2022-08-17T03:46:10.972Z,19.61
2022-08-17T03:49:13.529Z,19.58
2022-08-17T03:51:59.164Z,19.55
2022-08-17T03:54:44.821Z,19.53
2022-08-17T03:57:12.899Z,19.52
2022-08-17T03:59:40.881Z,19.51
2022-08-17T04:02:15.968Z,19.49
2022-08-17T04:04:43.290Z,19.49
2022-08-17T04:07:10.571Z,19.47
2022-08-17T04:09:38.040Z,19.47
2022-08-17T04:12:05.912Z,19.46
2022-08-17T04:14:51.494Z,19.47
2022-08-17T04:17:24.932Z,19.48
2022-08-17T04:19:53.396Z,19.50
2022-08-17T04:22:30.042Z,19.50
2022-08-17T04:24:59.138Z,19.52
2022-08-17T04:27:26.118Z,19.55
2022-08-17T04:29:55.602Z,19.58
2022-08-17T04:32:58.399Z,19.62
2022-08-17T04:35:11.658Z,19.65
2022-08-17T04:37:39.014Z,19.68
2022-08-17T04:40:27.175Z,19.72
2022-08-17T04:43:04.782Z,19.77
2022-08-17T04:45:32.616Z,19.82
2022-08-17T04:48:00.981Z,19.88
2022-08-17T04:50:28.817Z,19.95
2022-08-17T04:52:56.914Z,20.00
2022-08-17T04:55:24.370Z,20.06
2022-08-17T04:57:51.379Z,20.11
2022-08-17T05:00:18.730Z,20.18
2022-08-17T05:02:50.054Z,20.24
2022-08-17T05:05:28.242Z,20.35
2022-08-17T05:07:58.622Z,20.45
2022-08-17T05:10:31.706Z,20.57
2022-08-17T05:13:15.899Z,20.71
2022-08-17T05:15:47.647Z,20.84
2022-08-17T05:18:16.547Z,20.98
2022-08-17T05:20:44.452Z,21.09
2022-08-17T05:23:16.663Z,21.22
2022-08-17T05:25:47.927Z,21.34
2022-08-17T05:28:20.844Z,21.44
2022-08-17T05:30:51.945Z,21.57
2022-08-17T05:33:30.111Z,21.68
2022-08-17T05:35:59.494Z,21.83
2022-08-17T05:38:29.543Z,21.99
2022-08-17T05:41:00.279Z,22.16
2022-08-17T05:43:32.567Z,22.33
2022-08-17T05:46:26.414Z,22.53
2022-08-17T05:48:59.187Z,22.70
2022-08-17T05:52:00.133Z,22.87
2022-08-17T05:55:17.489Z,23.02
2022-08-17T05:58:09.894Z,23.15
2022-08-17T06:00:47.908Z,23.19
2022-08-17T06:03:34.249Z,23.17
2022-08-17T06:06:41.471Z,23.30
2022-08-17T06:09:37.086Z,23.36
2022-08-17T06:12:39.911Z,23.50
2022-08-17T06:15:31.551Z,23.59
2022-08-17T06:18:07.827Z,23.61
2022-08-17T06:20:58.401Z,23.70
2022-08-17T06:23:40.734Z,23.78
2022-08-17T06:26:22.054Z,23.84
2022-08-17T06:29:02.814Z,23.88
2022-08-17T06:31:36.876Z,23.93
2022-08-17T06:34:10.513Z,23.99
2022-08-17T06:37:09.170Z,24.05
2022-08-17T06:40:11.035Z,24.12
2022-08-17T06:43:06.430Z,24.16
2022-08-17T06:46:01.811Z,24.22
2022-08-17T06:49:07.736Z,24.29
2022-08-17T06:52:08.223Z,24.48
2022-08-17T06:55:18.161Z,24.65
2022-08-17T06:57:53.501Z,24.74
2022-08-17T07:00:28.324Z,24.85
2022-08-17T07:03:26.341Z,24.89
2022-08-17T07:06:00.861Z,24.93
2022-08-17T07:08:54.923Z,25.11
2022-08-17T07:11:53.315Z,25.41
2022-08-17T07:14:40.965Z,25.55
2022-08-17T07:17:13.988Z,25.64
2022-08-17T07:19:45.443Z,25.79
2022-08-17T07:23:00.201Z,26.16
2022-08-17T07:25:30.405Z,26.32
2022-08-17T07:28:05.302Z,26.44
2022-08-17T07:30:49.193Z,26.63
2022-08-17T07:33:23.762Z,26.62
2022-08-17T07:35:52.114Z,26.91
2022-08-17T07:38:25.370Z,27.12
2022-08-17T07:41:03.483Z,27.48
2022-08-17T07:43:39.999Z,27.61
2022-08-17T07:46:52.381Z,27.47
2022-08-17T07:49:46.373Z,27.61
2022-08-17T07:52:47.945Z,27.74
2022-08-17T07:55:34.885Z,27.90
2022-08-17T07:58:03.664Z,28.18
2022-08-17T08:00:33.522Z,28.60
2022-08-17T08:03:28.635Z,28.88
2022-08-17T08:06:01.362Z,28.71
2022-08-17T08:08:43.686Z,29.10
2022-08-17T08:11:29.628Z,29.43
2022-08-17T08:14:22.647Z,29.72
2022-08-17T08:17:07.065Z,29.95
2022-08-17T08:19:37.158Z,29.98
2022-08-17T08:22:11.099Z,30.09
2022-08-17T08:25:00.111Z,29.91
2022-08-17T08:27:50.154Z,29.92
2022-08-17T08:30:21.921Z,30.10
2022-08-17T08:32:57.606Z,30.37
2022-08-17T08:35:54.008Z,30.53
2022-08-17T08:38:50.836Z,30.53
2022-08-17T08:42:13.016Z,30.43
2022-08-17T08:45:00.616Z,30.52
2022-08-17T08:48:02.392Z,30.73
2022-08-17T08:51:00.932Z,30.83
2022-08-17T08:54:05.908Z,31.00
2022-08-17T09:00:07.250Z,31.47
2022-08-17T09:02:58.569Z,31.82
2022-08-17T09:05:42.777Z,32.00
2022-08-17T09:08:28.214Z,32.13
2022-08-17T09:11:31.088Z,32.43
2022-08-17T09:14:26.761Z,32.77
2022-08-17T09:17:12.738Z,32.82
2022-08-17T09:20:01.308Z,33.11
2022-08-17T09:22:38.556Z,33.40
2022-08-17T09:25:23.268Z,33.71
2022-08-17T09:28:13.300Z,34.01
2022-08-17T09:30:52.581Z,34.17
2022-08-17T09:33:29.014Z,34.26
2022-08-17T09:36:07.275Z,34.58
2022-08-17T09:39:10.138Z,34.78
2022-08-17T09:41:51.728Z,34.90
2022-08-17T09:44:37.846Z,35.07
2022-08-17T09:47:24.809Z,35.35
2022-08-17T09:50:04.774Z,35.60
2022-08-17T09:52:32.579Z,35.88
2022-08-17T09:55:01.855Z,35.91
2022-08-17T09:58:09.950Z,36.08
2022-08-17T10:00:57.811Z,36.18
2022-08-17T10:03:51.603Z,36.24
2022-08-17T10:06:24.763Z,36.44
2022-08-17T10:09:02.161Z,36.53
2022-08-17T10:11:57.688Z,36.72
2022-08-17T10:15:07.752Z,37.14
2022-08-17T10:18:14.738Z,37.08
2022-08-17T10:21:24.725Z,36.96
2022-08-17T10:25:21.578Z,36.96
2022-08-17T10:27:54.323Z,37.03
2022-08-17T10:30:26.718Z,37.09
2022-08-17T10:33:13.636Z,36.99
2022-08-17T10:36:06.397Z,36.79
2022-08-17T10:38:49.737Z,36.57
2022-08-17T10:41:38.220Z,36.41
2022-08-17T10:44:40.698Z,36.39
2022-08-17T10:47:16.254Z,36.52
2022-08-17T10:49:56.034Z,36.50
2022-08-17T10:52:25.168Z,36.48
2022-08-17T10:54:54.896Z,36.58
2022-08-17T10:57:37.326Z,36.59
2022-08-17T11:00:27.820Z,36.68
2022-08-17T11:02:57.825Z,36.90
2022-08-17T11:05:44.619Z,36.98
2022-08-17T11:08:57.036Z,37.37
2022-08-17T11:11:50.925Z,37.79
2022-08-17T11:15:01.737Z,37.55
2022-08-17T11:17:49.594Z,37.44
2022-08-17T11:21:12.182Z,37.51
2022-08-17T11:24:24.101Z,37.73
2022-08-17T11:27:28.660Z,38.18
2022-08-17T11:30:03.891Z,38.23
2022-08-17T11:32:53.024Z,38.36
2022-08-17T11:35:22.163Z,38.53
2022-08-17T11:38:34.676Z,38.60
2022-08-17T11:41:36.175Z,38.75
2022-08-17T11:44:28.259Z,38.88
2022-08-17T11:47:56.984Z,39.47
2022-08-17T11:51:35.035Z,39.04
2022-08-17T11:54:33.308Z,38.72
2022-08-17T11:57:27.677Z,38.70
2022-08-17T12:00:11.414Z,38.80
2022-08-17T12:02:48.513Z,38.91
2022-08-17T12:05:25.223Z,38.54
2022-08-17T12:08:04.617Z,38.39
2022-08-17T12:10:36.654Z,38.35
2022-08-17T12:13:14.487Z,38.31
2022-08-17T12:15:49.687Z,38.13
2022-08-17T12:18:33.603Z,37.93
2022-08-17T12:21:48.639Z,38.00
2022-08-17T12:25:04.775Z,37.65
2022-08-17T12:28:04.211Z,37.32
2022-08-17T12:30:31.865Z,37.13
2022-08-17T12:32:59.782Z,37.05
2022-08-17T12:35:38.945Z,36.80
2022-08-17T12:38:26.888Z,36.63
2022-08-17T12:40:58.494Z,36.46
2022-08-17T12:43:32.835Z,36.35
2022-08-17T12:46:13.236Z,36.25
2022-08-17T12:48:59.688Z,36.16
2022-08-17T12:51:34.227Z,36.04
2022-08-17T12:54:02.422Z,35.99
2022-08-17T12:56:29.888Z,36.02
2022-08-17T12:58:57.787Z,36.16
2022-08-17T13:01:26.468Z,36.56
2022-08-17T13:03:59.577Z,37.03
2022-08-17T13:06:34.799Z,36.84
2022-08-17T13:09:18.341Z,36.99
2022-08-17T13:11:56.664Z,36.83
2022-08-17T13:14:23.790Z,36.62
2022-08-17T13:17:07.150Z,36.62
2022-08-17T13:19:50.077Z,36.52
2022-08-17T13:22:23.116Z,36.36
2022-08-17T13:25:00.771Z,36.32
2022-08-17T13:27:32.442Z,36.23
2022-08-17T13:30:11.738Z,36.12
2022-08-17T13:32:48.159Z,36.03
2022-08-17T13:35:45.902Z,36.04
2022-08-17T13:38:51.084Z,36.30
2022-08-17T13:41:38.922Z,36.55
2022-08-17T13:44:33.713Z,36.63
2022-08-17T13:47:03.006Z,36.62
2022-08-17T13:49:41.574Z,36.65
2022-08-17T13:52:41.270Z,36.69
2022-08-17T13:55:22.876Z,36.70
2022-08-17T13:58:06.536Z,36.78
2022-08-17T14:00:36.839Z,36.93
2022-08-17T14:03:05.628Z,37.08
2022-08-17T14:05:33.868Z,37.23
2022-08-17T14:08:06.944Z,37.31
2022-08-17T14:10:36.307Z,37.45
2022-08-17T14:13:04.400Z,37.62
2022-08-17T14:15:54.662Z,37.70
2022-08-17T14:18:35.480Z,37.90
2022-08-17T14:21:09.400Z,38.03
2022-08-17T14:23:37.823Z,38.20
2022-08-17T14:26:05.532Z,38.42
2022-08-17T14:28:33.256Z,38.60
2022-08-17T14:31:03.791Z,38.58
2022-08-17T14:33:30.896Z,38.53
2022-08-17T14:35:58.661Z,38.64
2022-08-17T14:38:25.735Z,38.65
2022-08-17T14:40:52.989Z,38.58
2022-08-17T14:43:20.970Z,38.45
2022-08-17T14:45:47.969Z,38.30
2022-08-17T14:48:15.846Z,38.20
2022-08-17T14:50:44.195Z,38.03
2022-08-17T14:53:16.061Z,37.84
2022-08-17T14:55:47.350Z,37.68
2022-08-17T14:58:15.816Z,37.49
2022-08-17T15:00:43.607Z,37.31
2022-08-17T15:03:11.938Z,37.15
2022-08-17T15:05:40.318Z,37.03
2022-08-17T15:08:07.848Z,36.93
2022-08-17T15:10:36.502Z,36.84
2022-08-17T15:13:04.100Z,36.73
2022-08-17T15:15:31.264Z,36.64
2022-08-17T15:17:59.825Z,36.55
2022-08-17T15:20:30.148Z,36.46
2022-08-17T15:22:59.030Z,36.36
2022-08-17T15:25:30.290Z,36.30
2022-08-17T15:27:58.285Z,36.24
2022-08-17T15:30:26.553Z,36.25
2022-08-17T15:32:56.582Z,36.27
2022-08-17T15:35:29.745Z,36.32
2022-08-17T15:38:06.127Z,36.35
2022-08-17T15:40:44.333Z,36.40
2022-08-17T15:43:17.574Z,36.35
2022-08-17T15:45:52.910Z,36.35
2022-08-17T15:48:43.002Z,36.39
2022-08-17T15:51:17.811Z,36.36
2022-08-17T15:53:49.550Z,36.41
2022-08-17T15:56:17.194Z,36.39
2022-08-17T15:58:46.795Z,36.32
2022-08-17T16:01:42.243Z,36.15
2022-08-17T16:04:26.820Z,36.08
2022-08-17T16:06:54.958Z,36.06
2022-08-17T16:09:22.054Z,36.06
2022-08-17T16:11:53.741Z,36.07
2022-08-17T16:14:24.271Z,36.05
2022-08-17T16:16:51.715Z,36.02
2022-08-17T16:19:18.702Z,36.00
2022-08-17T16:21:45.926Z,35.88
2022-08-17T16:24:13.691Z,35.86
2022-08-17T16:26:42.578Z,35.83
2022-08-17T16:29:10.745Z,35.84
2022-08-17T16:31:38.481Z,35.76
2022-08-17T16:34:17.767Z,35.60
2022-08-17T16:36:55.333Z,35.47
2022-08-17T16:39:29.142Z,35.28
2022-08-17T16:41:57.608Z,34.43
2022-08-17T16:44:28.886Z,33.30
2022-08-17T16:46:57.434Z,33.10
2022-08-17T16:49:35.509Z,33.29
2022-08-17T16:52:10.715Z,33.56
2022-08-17T16:54:43.649Z,33.02
2022-08-17T16:57:13.423Z,32.85
2022-08-17T16:59:44.887Z,32.89
2022-08-17T17:02:23.505Z,32.63
2022-08-17T17:05:17.666Z,32.69
2022-08-17T17:08:03.768Z,32.75
2022-08-17T17:11:25.026Z,32.42
2022-08-17T17:14:02.122Z,32.46
2022-08-17T17:16:35.352Z,32.10
2022-08-17T17:19:34.946Z,32.27
2022-08-17T17:22:30.119Z,32.36
2022-08-17T17:25:16.034Z,32.30
2022-08-17T17:28:07.240Z,32.11
2022-08-17T17:30:57.658Z,31.88
2022-08-17T17:33:42.449Z,31.82
2022-08-17T17:36:43.201Z,31.68
2022-08-17T17:39:19.015Z,31.70
2022-08-17T17:41:58.251Z,31.59
2022-08-17T17:44:34.331Z,31.47
2022-08-17T17:47:04.791Z,31.45
2022-08-17T17:49:46.452Z,31.48
2022-08-17T17:52:53.546Z,31.46
2022-08-17T17:55:37.899Z,31.41
2022-08-17T17:58:49.386Z,31.37
2022-08-17T18:02:02.156Z,31.26
2022-08-17T18:04:47.547Z,31.18
2022-08-17T18:07:39.277Z,31.12
2022-08-17T18:10:31.613Z,31.08
2022-08-17T18:13:26.604Z,31.01
2022-08-17T18:15:56.528Z,30.92
2022-08-17T18:18:37.780Z,30.84
2022-08-17T18:21:18.950Z,30.78
2022-08-17T18:23:57.600Z,30.71
2022-08-17T18:26:42.018Z,30.63
2022-08-17T18:29:30.079Z,30.52
2022-08-17T18:32:33.571Z,30.43
2022-08-17T18:35:08.768Z,30.34
2022-08-17T18:37:42.814Z,30.28
2022-08-17T18:40:19.631Z,30.21
2022-08-17T18:43:43.775Z,30.14
2022-08-17T18:46:35.279Z,30.06
2022-08-17T18:49:32.566Z,29.96
2022-08-17T18:52:33.483Z,29.87
2022-08-17T18:55:17.462Z,29.78
2022-08-17T18:58:10.249Z,29.72
2022-08-17T19:00:41.583Z,29.61
2022-08-17T19:03:18.368Z,29.54
2022-08-17T19:06:17.254Z,29.46
2022-08-17T19:08:45.242Z,29.40
2022-08-17T19:11:39.327Z,29.32
2022-08-17T19:14:17.240Z,29.26
2022-08-17T19:16:53.445Z,29.19
2022-08-17T19:19:58.116Z,29.09
2022-08-17T19:22:49.686Z,29.01
2022-08-17T19:25:30.682Z,28.92
2022-08-17T19:28:04.190Z,28.87
2022-08-17T19:30:55.978Z,28.79
2022-08-17T19:33:23.991Z,28.71
2022-08-17T19:36:28.611Z,28.62
2022-08-17T19:39:37.743Z,28.53
2022-08-17T19:42:29.722Z,28.47
2022-08-17T19:45:27.776Z,28.42
2022-08-17T19:48:41.749Z,28.31
2022-08-17T19:51:35.540Z,28.20
2022-08-17T19:54:39.965Z,28.12
2022-08-17T19:57:25.747Z,28.05
2022-08-17T20:00:05.775Z,27.95
2022-08-17T20:02:53.501Z,27.91
2022-08-17T20:05:40.650Z,27.81
2022-08-17T20:08:33.880Z,27.75
2022-08-17T20:11:41.567Z,27.65
2022-08-17T20:14:17.502Z,27.58
2022-08-17T20:16:44.971Z,27.52
2022-08-17T20:19:39.927Z,27.47
2022-08-17T20:22:20.456Z,27.37
2022-08-17T20:25:07.036Z,27.31
2022-08-17T20:27:51.468Z,27.23
2022-08-17T20:30:41.640Z,27.17
2022-08-17T20:33:36.334Z,27.09
2022-08-17T20:36:20.112Z,27.02
2022-08-17T20:38:54.415Z,26.96
2022-08-17T20:41:30.697Z,26.90
2022-08-17T20:43:58.630Z,26.84
2022-08-17T20:46:37.606Z,26.78
2022-08-17T20:49:39.949Z,26.73
2022-08-17T20:52:15.527Z,26.67
2022-08-17T20:54:57.326Z,26.63
2022-08-17T20:57:33.429Z,26.54
2022-08-17T21:00:19.232Z,26.49
2022-08-17T21:02:50.903Z,26.44
2022-08-17T21:05:53.861Z,26.35
2022-08-17T21:08:45.283Z,26.30
2022-08-17T21:12:03.067Z,26.23
2022-08-17T21:14:54.163Z,26.16
2022-08-17T21:17:42.781Z,26.10
2022-08-17T21:20:59.749Z,26.04
2022-08-17T21:24:07.450Z,25.96
2022-08-17T21:26:57.431Z,25.91
2022-08-17T21:29:31.211Z,25.85
2022-08-17T21:32:03.010Z,25.79
2022-08-17T21:34:38.249Z,25.75
2022-08-17T21:37:21.769Z,25.69
2022-08-17T21:40:19.743Z,25.63
2022-08-17T21:42:58.032Z,25.59
2022-08-17T21:45:35.532Z,25.53
2022-08-17T21:48:21.295Z,25.48
2022-08-17T21:51:10.899Z,25.38
2022-08-17T21:53:48.945Z,25.31
2022-08-17T21:56:30.356Z,25.25
2022-08-17T21:59:24.341Z,25.18
2022-08-17T22:02:07.337Z,25.12
2022-08-17T22:04:41.510Z,25.07
2022-08-17T22:07:13.866Z,25.03
2022-08-17T22:09:48.715Z,24.96
2022-08-17T22:12:24.163Z,24.91
2022-08-17T22:15:04.253Z,24.86
2022-08-17T22:17:40.281Z,24.80
2022-08-17T22:20:19.802Z,24.74
2022-08-17T22:23:08.769Z,24.70
2022-08-17T22:25:56.309Z,24.64
2022-08-17T22:28:52.856Z,24.57
2022-08-17T22:31:32.854Z,24.53
2022-08-17T22:34:00.227Z,24.50
2022-08-17T22:36:41.787Z,24.46
2022-08-17T22:39:09.178Z,24.42
2022-08-17T22:41:50.854Z,24.38
2022-08-17T22:44:27.202Z,24.35
2022-08-17T22:46:58.930Z,24.31
2022-08-17T22:49:54.027Z,24.24
2022-08-17T22:53:03.262Z,24.16
2022-08-17T22:55:52.484Z,24.12
2022-08-17T22:58:42.702Z,24.04
2022-08-17T23:01:32.573Z,24.00
2022-08-17T23:04:13.710Z,23.94
2022-08-17T23:06:44.548Z,23.89
2022-08-17T23:09:11.687Z,23.86
2022-08-17T23:11:53.333Z,23.83
2022-08-17T23:14:20.870Z,23.80
2022-08-17T23:16:50.275Z,23.77
2022-08-17T23:19:21.246Z,23.74
2022-08-17T23:21:50.964Z,23.70
2022-08-17T23:24:24.879Z,23.67
2022-08-17T23:26:52.612Z,23.63
2022-08-17T23:29:21.286Z,23.58
2022-08-17T23:31:50.587Z,23.54
2022-08-17T23:34:18.944Z,23.50
2022-08-17T23:36:50.603Z,23.46
2022-08-17T23:39:24.552Z,23.41
2022-08-17T23:41:57.734Z,23.38
2022-08-17T23:44:26.600Z,23.35
2022-08-17T23:46:55.005Z,23.32
2022-08-17T23:49:24.388Z,23.27
2022-08-17T23:51:54.584Z,23.24
2022-08-17T23:54:41.504Z,23.19
2022-08-17T23:57:20.878Z,23.12
